sensor_id;sensor_type;location;lat;lon;timestamp;P1;durP1;ratioP1;P2;durP2;ratioP2
75295;SDS011;64126;44.738;37.804;2022-10-16T00:01:53;8.07;;;4.07;;
75295;SDS011;64126;44.738;37.804;2022-10-16T00:04:27;7.45;;;3.03;;
75295;SDS011;64126;44.738;37.804;2022-10-16T00:07:01;7.25;;;4.30;;
75295;SDS011;64126;44.738;37.804;2022-10-16T00:09:35;6.43;;;2.95;;
75295;SDS011;64126;44.738;37.804;2022-10-16T00:12:09;7.13;;;4.93;;
75295;SDS011;64126;44.738;37.804;2022-10-16T00:14:43;7.00;;;4.95;;
75295;SDS011;64126;44.738;37.804;2022-10-16T00:17:17;7.20;;;4.97;;
75295;SDS011;64126;44.738;37.804;2022-10-16T00:19:53;8.85;;;5.53;;
75295;SDS011;64126;44.738;37.804;2022-10-16T00:22:46;7.35;;;4.30;;
75295;SDS011;64126;44.738;37.804;2022-10-16T00:25:20;8.43;;;5.03;;
75295;SDS011;64126;44.738;37.804;2022-10-16T00:27:54;7.32;;;4.32;;
75295;SDS011;64126;44.738;37.804;2022-10-16T00:30:28;8.15;;;5.07;;
75295;SDS011;64126;44.738;37.804;2022-10-16T00:33:02;6.03;;;4.38;;
75295;SDS011;64126;44.738;37.804;2022-10-16T00:35:35;8.85;;;5.30;;
75295;SDS011;64126;44.738;37.804;2022-10-16T00:38:10;8.95;;;5.18;;
75295;SDS011;64126;44.738;37.804;2022-10-16T00:40:44;12.25;;;4.97;;
75295;SDS011;64126;44.738;37.804;2022-10-16T00:46:16;7.90;;;4.85;;
75295;SDS011;64126;44.738;37.804;2022-10-16T00:49:15;8.55;;;3.97;;
75295;SDS011;64126;44.738;37.804;2022-10-16T00:51:51;9.10;;;4.68;;
75295;SDS011;64126;44.738;37.804;2022-10-16T00:54:27;8.93;;;4.53;;
75295;SDS011;64126;44.738;37.804;2022-10-16T00:57:05;8.13;;;4.25;;
75295;SDS011;64126;44.738;37.804;2022-10-16T00:59:40;7.15;;;4.70;;
75295;SDS011;64126;44.738;37.804;2022-10-16T01:02:16;6.72;;;4.63;;
75295;SDS011;64126;44.738;37.804;2022-10-16T01:04:51;7.32;;;4.47;;
75295;SDS011;64126;44.738;37.804;2022-10-16T01:07:38;7.47;;;4.53;;
75295;SDS011;64126;44.738;37.804;2022-10-16T01:13:12;6.88;;;4.63;;
75295;SDS011;64126;44.738;37.804;2022-10-16T01:16:11;8.60;;;4.47;;
75295;SDS011;64126;44.738;37.804;2022-10-16T01:19:00;6.05;;;4.25;;
75295;SDS011;64126;44.738;37.804;2022-10-16T01:21:53;9.80;;;4.28;;
75295;SDS011;64126;44.738;37.804;2022-10-16T01:32:49;5.90;;;4.25;;
75295;SDS011;64126;44.738;37.804;2022-10-16T01:38:28;9.30;;;4.60;;
75295;SDS011;64126;44.738;37.804;2022-10-16T01:41:15;9.35;;;4.68;;
75295;SDS011;64126;44.738;37.804;2022-10-16T01:44:00;8.85;;;4.80;;
75295;SDS011;64126;44.738;37.804;2022-10-16T01:46:41;7.18;;;4.45;;
75295;SDS011;64126;44.738;37.804;2022-10-16T01:49:18;8.25;;;4.43;;
75295;SDS011;64126;44.738;37.804;2022-10-16T01:51:55;7.70;;;5.00;;
75295;SDS011;64126;44.738;37.804;2022-10-16T01:54:33;8.25;;;4.40;;
75295;SDS011;64126;44.738;37.804;2022-10-16T01:57:10;6.50;;;4.13;;
75295;SDS011;64126;44.738;37.804;2022-10-16T01:59:48;9.02;;;3.70;;
75295;SDS011;64126;44.738;37.804;2022-10-16T02:02:26;7.03;;;4.75;;
75295;SDS011;64126;44.738;37.804;2022-10-16T02:07:41;5.63;;;3.22;;
75295;SDS011;64126;44.738;37.804;2022-10-16T02:10:16;7.38;;;3.90;;
75295;SDS011;64126;44.738;37.804;2022-10-16T02:12:55;5.88;;;3.78;;
75295;SDS011;64126;44.738;37.804;2022-10-16T02:15:53;7.32;;;4.85;;
75295;SDS011;64126;44.738;37.804;2022-10-16T02:18:27;6.68;;;4.07;;
75295;SDS011;64126;44.738;37.804;2022-10-16T02:29:23;6.63;;;3.47;;
75295;SDS011;64126;44.738;37.804;2022-10-16T02:31:59;9.30;;;4.28;;
75295;SDS011;64126;44.738;37.804;2022-10-16T02:34:36;10.82;;;4.68;;
75295;SDS011;64126;44.738;37.804;2022-10-16T02:37:11;8.45;;;3.65;;
75295;SDS011;64126;44.738;37.804;2022-10-16T02:39:45;5.95;;;4.15;;
75295;SDS011;64126;44.738;37.804;2022-10-16T02:42:19;5.70;;;3.40;;
75295;SDS011;64126;44.738;37.804;2022-10-16T02:44:52;5.82;;;3.90;;
75295;SDS011;64126;44.738;37.804;2022-10-16T02:47:26;5.63;;;4.07;;
75295;SDS011;64126;44.738;37.804;2022-10-16T02:50:00;7.13;;;3.75;;
75295;SDS011;64126;44.738;37.804;2022-10-16T02:52:34;6.95;;;3.85;;
75295;SDS011;64126;44.738;37.804;2022-10-16T02:55:08;11.25;;;4.97;;
75295;SDS011;64126;44.738;37.804;2022-10-16T02:57:43;7.93;;;4.32;;
75295;SDS011;64126;44.738;37.804;2022-10-16T03:00:17;5.53;;;3.45;;
75295;SDS011;64126;44.738;37.804;2022-10-16T03:02:51;7.07;;;3.67;;
75295;SDS011;64126;44.738;37.804;2022-10-16T03:05:25;6.22;;;3.78;;
75295;SDS011;64126;44.738;37.804;2022-10-16T03:07:58;6.82;;;3.85;;
75295;SDS011;64126;44.738;37.804;2022-10-16T03:10:33;6.57;;;4.25;;
75295;SDS011;64126;44.738;37.804;2022-10-16T03:13:07;7.30;;;3.55;;
75295;SDS011;64126;44.738;37.804;2022-10-16T03:15:41;6.25;;;4.18;;
75295;SDS011;64126;44.738;37.804;2022-10-16T03:18:16;6.53;;;4.05;;
75295;SDS011;64126;44.738;37.804;2022-10-16T03:20:50;6.43;;;3.97;;
75295;SDS011;64126;44.738;37.804;2022-10-16T03:23:24;7.95;;;4.35;;
75295;SDS011;64126;44.738;37.804;2022-10-16T03:25:58;6.03;;;3.83;;
75295;SDS011;64126;44.738;37.804;2022-10-16T03:28:32;6.28;;;3.47;;
75295;SDS011;64126;44.738;37.804;2022-10-16T03:31:06;5.45;;;3.75;;
75295;SDS011;64126;44.738;37.804;2022-10-16T03:33:41;6.50;;;3.78;;
75295;SDS011;64126;44.738;37.804;2022-10-16T03:36:15;4.80;;;3.67;;
75295;SDS011;64126;44.738;37.804;2022-10-16T03:38:49;5.80;;;4.13;;
75295;SDS011;64126;44.738;37.804;2022-10-16T03:41:23;8.32;;;3.67;;
75295;SDS011;64126;44.738;37.804;2022-10-16T03:43:56;5.15;;;3.78;;
75295;SDS011;64126;44.738;37.804;2022-10-16T03:46:30;5.80;;;3.72;;
75295;SDS011;64126;44.738;37.804;2022-10-16T03:49:04;5.28;;;3.95;;
75295;SDS011;64126;44.738;37.804;2022-10-16T03:51:39;6.78;;;3.75;;
75295;SDS011;64126;44.738;37.804;2022-10-16T03:54:12;8.18;;;4.13;;
75295;SDS011;64126;44.738;37.804;2022-10-16T03:56:46;8.35;;;4.72;;
75295;SDS011;64126;44.738;37.804;2022-10-16T03:59:20;5.53;;;3.30;;
75295;SDS011;64126;44.738;37.804;2022-10-16T04:01:54;6.32;;;3.47;;
75295;SDS011;64126;44.738;37.804;2022-10-16T04:04:28;5.95;;;3.88;;
75295;SDS011;64126;44.738;37.804;2022-10-16T04:07:04;7.32;;;4.32;;
75295;SDS011;64126;44.738;37.804;2022-10-16T04:09:38;7.10;;;3.63;;
75295;SDS011;64126;44.738;37.804;2022-10-16T04:12:12;4.82;;;3.65;;
75295;SDS011;64126;44.738;37.804;2022-10-16T04:14:46;5.55;;;3.58;;
75295;SDS011;64126;44.738;37.804;2022-10-16T04:17:20;7.95;;;3.78;;
75295;SDS011;64126;44.738;37.804;2022-10-16T04:19:54;6.30;;;3.60;;
75295;SDS011;64126;44.738;37.804;2022-10-16T04:22:28;6.57;;;3.22;;
75295;SDS011;64126;44.738;37.804;2022-10-16T04:25:02;6.13;;;3.50;;
75295;SDS011;64126;44.738;37.804;2022-10-16T04:27:36;6.78;;;3.63;;
75295;SDS011;64126;44.738;37.804;2022-10-16T04:30:11;6.22;;;3.80;;
75295;SDS011;64126;44.738;37.804;2022-10-16T04:32:49;4.35;;;3.58;;
75295;SDS011;64126;44.738;37.804;2022-10-16T04:35:23;5.70;;;3.70;;
75295;SDS011;64126;44.738;37.804;2022-10-16T04:37:58;5.57;;;3.40;;
75295;SDS011;64126;44.738;37.804;2022-10-16T04:40:32;4.80;;;3.53;;
75295;SDS011;64126;44.738;37.804;2022-10-16T04:43:06;5.22;;;3.20;;
75295;SDS011;64126;44.738;37.804;2022-10-16T04:45:40;8.48;;;3.42;;
75295;SDS011;64126;44.738;37.804;2022-10-16T04:48:14;6.45;;;3.92;;
75295;SDS011;64126;44.738;37.804;2022-10-16T04:50:47;5.32;;;3.08;;
75295;SDS011;64126;44.738;37.804;2022-10-16T04:53:22;5.93;;;3.58;;
75295;SDS011;64126;44.738;37.804;2022-10-16T04:55:56;6.15;;;3.38;;
75295;SDS011;64126;44.738;37.804;2022-10-16T04:58:30;6.07;;;3.53;;
75295;SDS011;64126;44.738;37.804;2022-10-16T05:01:04;4.53;;;3.10;;
75295;SDS011;64126;44.738;37.804;2022-10-16T05:03:38;5.22;;;3.47;;
75295;SDS011;64126;44.738;37.804;2022-10-16T05:06:11;5.65;;;4.07;;
75295;SDS011;64126;44.738;37.804;2022-10-16T05:08:45;6.18;;;3.78;;
75295;SDS011;64126;44.738;37.804;2022-10-16T05:11:19;6.78;;;3.58;;
75295;SDS011;64126;44.738;37.804;2022-10-16T05:13:53;6.20;;;3.90;;
75295;SDS011;64126;44.738;37.804;2022-10-16T05:16:27;6.22;;;3.25;;
75295;SDS011;64126;44.738;37.804;2022-10-16T05:19:01;5.88;;;3.35;;
75295;SDS011;64126;44.738;37.804;2022-10-16T05:21:54;6.13;;;3.65;;
75295;SDS011;64126;44.738;37.804;2022-10-16T05:24:28;6.22;;;3.60;;
75295;SDS011;64126;44.738;37.804;2022-10-16T05:27:02;5.82;;;3.60;;
75295;SDS011;64126;44.738;37.804;2022-10-16T05:29:36;7.28;;;4.47;;
75295;SDS011;64126;44.738;37.804;2022-10-16T05:32:10;10.02;;;4.00;;
75295;SDS011;64126;44.738;37.804;2022-10-16T05:34:45;5.82;;;3.45;;
75295;SDS011;64126;44.738;37.804;2022-10-16T05:37:18;6.38;;;4.22;;
75295;SDS011;64126;44.738;37.804;2022-10-16T05:39:52;4.85;;;3.20;;
75295;SDS011;64126;44.738;37.804;2022-10-16T05:42:26;6.63;;;3.83;;
75295;SDS011;64126;44.738;37.804;2022-10-16T05:45:01;5.72;;;3.95;;
75295;SDS011;64126;44.738;37.804;2022-10-16T05:47:35;5.97;;;3.92;;
75295;SDS011;64126;44.738;37.804;2022-10-16T05:50:09;5.13;;;3.95;;
75295;SDS011;64126;44.738;37.804;2022-10-16T05:52:43;6.70;;;4.15;;
75295;SDS011;64126;44.738;37.804;2022-10-16T05:55:17;6.53;;;3.90;;
75295;SDS011;64126;44.738;37.804;2022-10-16T05:57:53;5.10;;;3.67;;
75295;SDS011;64126;44.738;37.804;2022-10-16T06:00:28;8.23;;;3.30;;
75295;SDS011;64126;44.738;37.804;2022-10-16T06:03:02;10.13;;;4.05;;
75295;SDS011;64126;44.738;37.804;2022-10-16T06:05:38;5.38;;;3.65;;
75295;SDS011;64126;44.738;37.804;2022-10-16T06:08:11;5.35;;;3.50;;
75295;SDS011;64126;44.738;37.804;2022-10-16T06:10:45;5.80;;;3.05;;
75295;SDS011;64126;44.738;37.804;2022-10-16T06:13:20;8.48;;;4.13;;
75295;SDS011;64126;44.738;37.804;2022-10-16T06:15:56;6.75;;;3.67;;
75295;SDS011;64126;44.738;37.804;2022-10-16T06:21:09;5.47;;;3.42;;
75295;SDS011;64126;44.738;37.804;2022-10-16T06:23:50;5.15;;;3.58;;
75295;SDS011;64126;44.738;37.804;2022-10-16T06:26:25;5.32;;;3.50;;
75295;SDS011;64126;44.738;37.804;2022-10-16T06:29:00;10.18;;;3.85;;
75295;SDS011;64126;44.738;37.804;2022-10-16T06:31:35;7.32;;;3.40;;
75295;SDS011;64126;44.738;37.804;2022-10-16T06:34:09;9.52;;;4.53;;
75295;SDS011;64126;44.738;37.804;2022-10-16T06:36:44;7.43;;;3.45;;
75295;SDS011;64126;44.738;37.804;2022-10-16T06:39:18;5.72;;;3.60;;
75295;SDS011;64126;44.738;37.804;2022-10-16T06:41:52;7.32;;;3.72;;
75295;SDS011;64126;44.738;37.804;2022-10-16T06:44:29;4.28;;;2.72;;
75295;SDS011;64126;44.738;37.804;2022-10-16T06:47:03;5.28;;;4.25;;
75295;SDS011;64126;44.738;37.804;2022-10-16T06:49:37;4.63;;;3.53;;
75295;SDS011;64126;44.738;37.804;2022-10-16T06:52:11;4.45;;;3.40;;
75295;SDS011;64126;44.738;37.804;2022-10-16T06:54:45;5.60;;;3.65;;
75295;SDS011;64126;44.738;37.804;2022-10-16T06:57:19;5.55;;;4.07;;
75295;SDS011;64126;44.738;37.804;2022-10-16T06:59:53;4.95;;;3.92;;
75295;SDS011;64126;44.738;37.804;2022-10-16T07:02:28;5.53;;;3.85;;
75295;SDS011;64126;44.738;37.804;2022-10-16T07:05:02;5.65;;;3.65;;
75295;SDS011;64126;44.738;37.804;2022-10-16T07:07:36;4.97;;;4.03;;
75295;SDS011;64126;44.738;37.804;2022-10-16T07:10:10;7.40;;;4.20;;
75295;SDS011;64126;44.738;37.804;2022-10-16T07:12:44;6.70;;;3.75;;
75295;SDS011;64126;44.738;37.804;2022-10-16T07:15:18;6.22;;;4.15;;
75295;SDS011;64126;44.738;37.804;2022-10-16T07:17:52;5.88;;;4.22;;
75295;SDS011;64126;44.738;37.804;2022-10-16T07:20:26;4.28;;;3.33;;
75295;SDS011;64126;44.738;37.804;2022-10-16T07:23:00;5.60;;;3.85;;
75295;SDS011;64126;44.738;37.804;2022-10-16T07:25:34;4.43;;;3.80;;
75295;SDS011;64126;44.738;37.804;2022-10-16T07:28:08;7.53;;;4.40;;
75295;SDS011;64126;44.738;37.804;2022-10-16T07:30:43;7.45;;;4.55;;
75295;SDS011;64126;44.738;37.804;2022-10-16T07:33:17;5.18;;;3.67;;
75295;SDS011;64126;44.738;37.804;2022-10-16T07:35:51;6.30;;;4.80;;
75295;SDS011;64126;44.738;37.804;2022-10-16T07:38:26;6.32;;;5.03;;
75295;SDS011;64126;44.738;37.804;2022-10-16T07:41:04;6.13;;;4.60;;
75295;SDS011;64126;44.738;37.804;2022-10-16T07:43:48;6.15;;;5.07;;
75295;SDS011;64126;44.738;37.804;2022-10-16T07:46:24;8.15;;;5.65;;
75295;SDS011;64126;44.738;37.804;2022-10-16T07:48:58;6.03;;;4.63;;
75295;SDS011;64126;44.738;37.804;2022-10-16T07:51:32;4.70;;;4.18;;
75295;SDS011;64126;44.738;37.804;2022-10-16T07:54:07;6.47;;;4.97;;
75295;SDS011;64126;44.738;37.804;2022-10-16T07:56:44;5.93;;;4.88;;
75295;SDS011;64126;44.738;37.804;2022-10-16T07:59:18;6.55;;;4.07;;
75295;SDS011;64126;44.738;37.804;2022-10-16T08:01:51;5.32;;;3.67;;
75295;SDS011;64126;44.738;37.804;2022-10-16T08:04:25;7.63;;;4.28;;
75295;SDS011;64126;44.738;37.804;2022-10-16T08:06:59;5.13;;;4.63;;
75295;SDS011;64126;44.738;37.804;2022-10-16T08:09:38;5.72;;;3.97;;
75295;SDS011;64126;44.738;37.804;2022-10-16T08:12:18;7.15;;;5.15;;
75295;SDS011;64126;44.738;37.804;2022-10-16T08:14:52;6.78;;;3.92;;
75295;SDS011;64126;44.738;37.804;2022-10-16T08:17:26;6.18;;;4.10;;
75295;SDS011;64126;44.738;37.804;2022-10-16T08:20:04;7.53;;;4.93;;
75295;SDS011;64126;44.738;37.804;2022-10-16T08:25:13;5.22;;;4.05;;
75295;SDS011;64126;44.738;37.804;2022-10-16T08:27:47;4.93;;;4.13;;
75295;SDS011;64126;44.738;37.804;2022-10-16T08:30:22;4.20;;;3.72;;
75295;SDS011;64126;44.738;37.804;2022-10-16T08:32:57;5.10;;;3.72;;
75295;SDS011;64126;44.738;37.804;2022-10-16T08:35:31;5.13;;;4.15;;
75295;SDS011;64126;44.738;37.804;2022-10-16T08:38:05;4.80;;;3.83;;
75295;SDS011;64126;44.738;37.804;2022-10-16T08:40:41;5.43;;;3.70;;
75295;SDS011;64126;44.738;37.804;2022-10-16T08:49:12;4.35;;;3.95;;
75295;SDS011;64126;44.738;37.804;2022-10-16T08:51:48;3.63;;;3.17;;
75295;SDS011;64126;44.738;37.804;2022-10-16T08:54:35;5.72;;;4.88;;
75295;SDS011;64126;44.738;37.804;2022-10-16T08:57:21;6.78;;;5.40;;
75295;SDS011;64126;44.738;37.804;2022-10-16T08:59:59;8.95;;;6.15;;
75295;SDS011;64126;44.738;37.804;2022-10-16T09:02:40;31.42;;;16.60;;
75295;SDS011;64126;44.738;37.804;2022-10-16T09:13:49;28.58;;;15.23;;
75295;SDS011;64126;44.738;37.804;2022-10-16T09:16:44;33.10;;;17.55;;
75295;SDS011;64126;44.738;37.804;2022-10-16T09:19:37;56.78;;;29.15;;
75295;SDS011;64126;44.738;37.804;2022-10-16T09:22:34;28.40;;;16.52;;
75295;SDS011;64126;44.738;37.804;2022-10-16T09:25:13;28.52;;;17.20;;
75295;SDS011;64126;44.738;37.804;2022-10-16T09:27:51;40.53;;;22.15;;
75295;SDS011;64126;44.738;37.804;2022-10-16T09:30:27;32.55;;;17.55;;
75295;SDS011;64126;44.738;37.804;2022-10-16T09:33:05;37.72;;;20.80;;
75295;SDS011;64126;44.738;37.804;2022-10-16T09:38:21;68.80;;;37.97;;
75295;SDS011;64126;44.738;37.804;2022-10-16T09:40:56;24.83;;;14.63;;
75295;SDS011;64126;44.738;37.804;2022-10-16T09:43:36;28.70;;;18.38;;
75295;SDS011;64126;44.738;37.804;2022-10-16T09:46:27;19.10;;;11.52;;
75295;SDS011;64126;44.738;37.804;2022-10-16T09:49:20;20.55;;;13.63;;
75295;SDS011;64126;44.738;37.804;2022-10-16T09:52:05;15.55;;;9.63;;
75295;SDS011;64126;44.738;37.804;2022-10-16T09:54:52;5.55;;;4.78;;
75295;SDS011;64126;44.738;37.804;2022-10-16T09:57:50;11.00;;;7.65;;
75295;SDS011;64126;44.738;37.804;2022-10-16T10:00:25;18.23;;;11.43;;
75295;SDS011;64126;44.738;37.804;2022-10-16T10:03:01;14.48;;;10.77;;
75295;SDS011;64126;44.738;37.804;2022-10-16T10:05:47;9.38;;;6.88;;
75295;SDS011;64126;44.738;37.804;2022-10-16T10:08:32;15.15;;;9.23;;
75295;SDS011;64126;44.738;37.804;2022-10-16T10:11:07;10.02;;;7.03;;
75295;SDS011;64126;44.738;37.804;2022-10-16T10:13:43;13.55;;;7.78;;
75295;SDS011;64126;44.738;37.804;2022-10-16T10:16:24;12.13;;;8.32;;
75295;SDS011;64126;44.738;37.804;2022-10-16T10:18:59;7.75;;;5.88;;
75295;SDS011;64126;44.738;37.804;2022-10-16T10:21:38;10.02;;;6.70;;
75295;SDS011;64126;44.738;37.804;2022-10-16T10:24:13;9.48;;;5.97;;
75295;SDS011;64126;44.738;37.804;2022-10-16T10:27:00;8.18;;;6.68;;
75295;SDS011;64126;44.738;37.804;2022-10-16T10:29:47;6.18;;;5.20;;
75295;SDS011;64126;44.738;37.804;2022-10-16T10:35:22;6.15;;;5.35;;
75295;SDS011;64126;44.738;37.804;2022-10-16T10:40:55;6.65;;;4.68;;
75295;SDS011;64126;44.738;37.804;2022-10-16T10:46:32;6.07;;;4.13;;
75295;SDS011;64126;44.738;37.804;2022-10-16T11:01:15;5.80;;;5.25;;
75295;SDS011;64126;44.738;37.804;2022-10-16T11:06:55;7.20;;;5.75;;
75295;SDS011;64126;44.738;37.804;2022-10-16T11:09:50;6.45;;;5.15;;
75295;SDS011;64126;44.738;37.804;2022-10-16T11:12:38;8.65;;;5.07;;
75295;SDS011;64126;44.738;37.804;2022-10-16T11:18:08;6.40;;;4.68;;
75295;SDS011;64126;44.738;37.804;2022-10-16T11:20:54;6.60;;;4.43;;
75295;SDS011;64126;44.738;37.804;2022-10-16T11:23:41;6.53;;;4.95;;
75295;SDS011;64126;44.738;37.804;2022-10-16T11:26:21;6.97;;;4.97;;
75295;SDS011;64126;44.738;37.804;2022-10-16T11:28:59;7.25;;;5.45;;
75295;SDS011;64126;44.738;37.804;2022-10-16T11:37:19;8.18;;;4.88;;
75295;SDS011;64126;44.738;37.804;2022-10-16T11:39:59;7.10;;;4.75;;
75295;SDS011;64126;44.738;37.804;2022-10-16T11:43:01;6.95;;;4.82;;
75295;SDS011;64126;44.738;37.804;2022-10-16T11:45:46;6.45;;;4.88;;
75295;SDS011;64126;44.738;37.804;2022-10-16T11:48:39;6.88;;;5.25;;
75295;SDS011;64126;44.738;37.804;2022-10-16T11:51:21;9.82;;;5.28;;
75295;SDS011;64126;44.738;37.804;2022-10-16T11:54:16;5.15;;;4.55;;
75295;SDS011;64126;44.738;37.804;2022-10-16T11:57:07;7.10;;;4.72;;
75295;SDS011;64126;44.738;37.804;2022-10-16T11:59:55;6.72;;;4.38;;
75295;SDS011;64126;44.738;37.804;2022-10-16T12:05:33;6.70;;;4.55;;
75295;SDS011;64126;44.738;37.804;2022-10-16T12:08:11;6.10;;;4.65;;
75295;SDS011;64126;44.738;37.804;2022-10-16T12:10:47;6.43;;;4.15;;
75295;SDS011;64126;44.738;37.804;2022-10-16T12:13:31;9.52;;;5.40;;
75295;SDS011;64126;44.738;37.804;2022-10-16T12:18:46;6.68;;;5.35;;
75295;SDS011;64126;44.738;37.804;2022-10-16T12:21:21;5.93;;;5.03;;
75295;SDS011;64126;44.738;37.804;2022-10-16T12:24:18;8.30;;;5.82;;
75295;SDS011;64126;44.738;37.804;2022-10-16T12:30:04;6.90;;;6.05;;
75295;SDS011;64126;44.738;37.804;2022-10-16T12:32:40;7.13;;;4.45;;
75295;SDS011;64126;44.738;37.804;2022-10-16T12:35:21;6.95;;;4.88;;
75295;SDS011;64126;44.738;37.804;2022-10-16T12:38:07;7.45;;;4.30;;
75295;SDS011;64126;44.738;37.804;2022-10-16T12:41:04;5.05;;;4.60;;
75295;SDS011;64126;44.738;37.804;2022-10-16T12:43:46;5.72;;;4.72;;
75295;SDS011;64126;44.738;37.804;2022-10-16T12:49:16;6.63;;;4.45;;
75295;SDS011;64126;44.738;37.804;2022-10-16T12:51:54;5.75;;;4.53;;
75295;SDS011;64126;44.738;37.804;2022-10-16T12:54:36;8.20;;;5.05;;
75295;SDS011;64126;44.738;37.804;2022-10-16T12:57:26;7.55;;;5.28;;
75295;SDS011;64126;44.738;37.804;2022-10-16T13:29:53;7.10;;;5.28;;
75295;SDS011;64126;44.738;37.804;2022-10-16T13:32:37;5.88;;;4.38;;
75295;SDS011;64126;44.738;37.804;2022-10-16T13:35:20;10.63;;;4.50;;
75295;SDS011;64126;44.738;37.804;2022-10-16T13:38:13;7.70;;;4.05;;
75295;SDS011;64126;44.738;37.804;2022-10-16T13:40:49;8.38;;;4.13;;
75295;SDS011;64126;44.738;37.804;2022-10-16T13:46:21;74.45;;;43.80;;
75295;SDS011;64126;44.738;37.804;2022-10-16T13:51:35;26.48;;;13.75;;
75295;SDS011;64126;44.738;37.804;2022-10-16T13:54:10;45.25;;;21.67;;
75295;SDS011;64126;44.738;37.804;2022-10-16T13:56:44;15.88;;;9.25;;
75295;SDS011;64126;44.738;37.804;2022-10-16T14:01:56;18.30;;;14.63;;
75295;SDS011;64126;44.738;37.804;2022-10-16T14:04:32;17.33;;;13.23;;
75295;SDS011;64126;44.738;37.804;2022-10-16T14:07:13;11.43;;;8.85;;
75295;SDS011;64126;44.738;37.804;2022-10-16T14:09:53;8.25;;;5.85;;
75295;SDS011;64126;44.738;37.804;2022-10-16T14:12:28;9.15;;;5.72;;
75295;SDS011;64126;44.738;37.804;2022-10-16T14:15:02;8.30;;;5.95;;
75295;SDS011;64126;44.738;37.804;2022-10-16T14:17:38;8.55;;;6.55;;
75295;SDS011;64126;44.738;37.804;2022-10-16T14:20:28;8.15;;;6.47;;
75295;SDS011;64126;44.738;37.804;2022-10-16T14:23:22;9.57;;;6.10;;
75295;SDS011;64126;44.738;37.804;2022-10-16T14:26:45;10.02;;;6.82;;
75295;SDS011;64126;44.738;37.804;2022-10-16T14:29:10;9.85;;;5.70;;
75295;SDS011;64126;44.738;37.804;2022-10-16T14:32:02;11.30;;;6.15;;
75295;SDS011;64126;44.738;37.804;2022-10-16T14:34:38;10.52;;;5.93;;
75295;SDS011;64126;44.738;37.804;2022-10-16T14:37:23;8.23;;;5.65;;
75295;SDS011;64126;44.738;37.804;2022-10-16T14:39:59;10.10;;;5.85;;
75295;SDS011;64126;44.738;37.804;2022-10-16T14:42:35;9.65;;;6.15;;
75295;SDS011;64126;44.738;37.804;2022-10-16T14:45:09;11.70;;;6.72;;
75295;SDS011;64126;44.738;37.804;2022-10-16T14:47:55;9.65;;;5.97;;
75295;SDS011;64126;44.738;37.804;2022-10-16T14:50:34;13.27;;;6.22;;
75295;SDS011;64126;44.738;37.804;2022-10-16T14:53:11;7.80;;;5.63;;
75295;SDS011;64126;44.738;37.804;2022-10-16T14:55:46;6.78;;;5.40;;
75295;SDS011;64126;44.738;37.804;2022-10-16T14:58:22;7.53;;;5.50;;
75295;SDS011;64126;44.738;37.804;2022-10-16T15:00:57;7.68;;;5.43;;
75295;SDS011;64126;44.738;37.804;2022-10-16T15:03:32;7.18;;;5.25;;
75295;SDS011;64126;44.738;37.804;2022-10-16T15:06:12;8.88;;;5.28;;
75295;SDS011;64126;44.738;37.804;2022-10-16T15:08:47;14.30;;;5.85;;
75295;SDS011;64126;44.738;37.804;2022-10-16T15:11:21;8.57;;;5.47;;
75295;SDS011;64126;44.738;37.804;2022-10-16T15:13:55;9.18;;;5.63;;
75295;SDS011;64126;44.738;37.804;2022-10-16T15:16:29;7.55;;;5.90;;
75295;SDS011;64126;44.738;37.804;2022-10-16T15:19:04;9.18;;;5.80;;
75295;SDS011;64126;44.738;37.804;2022-10-16T15:21:38;12.35;;;5.82;;
75295;SDS011;64126;44.738;37.804;2022-10-16T15:24:13;11.50;;;5.68;;
75295;SDS011;64126;44.738;37.804;2022-10-16T15:26:48;7.10;;;5.65;;
75295;SDS011;64126;44.738;37.804;2022-10-16T15:29:22;7.72;;;5.47;;
75295;SDS011;64126;44.738;37.804;2022-10-16T15:31:56;7.47;;;5.72;;
75295;SDS011;64126;44.738;37.804;2022-10-16T15:34:31;12.30;;;4.82;;
75295;SDS011;64126;44.738;37.804;2022-10-16T15:37:05;6.82;;;4.78;;
75295;SDS011;64126;44.738;37.804;2022-10-16T15:39:39;6.88;;;4.28;;
75295;SDS011;64126;44.738;37.804;2022-10-16T15:42:13;8.50;;;4.88;;
75295;SDS011;64126;44.738;37.804;2022-10-16T15:44:47;9.88;;;4.32;;
75295;SDS011;64126;44.738;37.804;2022-10-16T15:47:23;8.07;;;4.43;;
75295;SDS011;64126;44.738;37.804;2022-10-16T15:49:57;7.18;;;4.18;;
75295;SDS011;64126;44.738;37.804;2022-10-16T15:52:34;6.43;;;4.03;;
75295;SDS011;64126;44.738;37.804;2022-10-16T15:55:10;4.85;;;3.80;;
75295;SDS011;64126;44.738;37.804;2022-10-16T15:57:46;6.82;;;4.45;;
75295;SDS011;64126;44.738;37.804;2022-10-16T16:00:20;12.18;;;4.22;;
75295;SDS011;64126;44.738;37.804;2022-10-16T16:02:55;8.63;;;4.22;;
75295;SDS011;64126;44.738;37.804;2022-10-16T16:05:31;9.07;;;3.92;;
75295;SDS011;64126;44.738;37.804;2022-10-16T16:08:06;6.47;;;4.47;;
75295;SDS011;64126;44.738;37.804;2022-10-16T16:10:40;8.18;;;4.70;;
75295;SDS011;64126;44.738;37.804;2022-10-16T16:13:16;9.57;;;4.80;;
75295;SDS011;64126;44.738;37.804;2022-10-16T16:15:50;7.60;;;5.35;;
75295;SDS011;64126;44.738;37.804;2022-10-16T16:18:25;8.80;;;5.25;;
75295;SDS011;64126;44.738;37.804;2022-10-16T16:20:59;5.63;;;4.53;;
75295;SDS011;64126;44.738;37.804;2022-10-16T16:23:34;6.22;;;3.92;;
75295;SDS011;64126;44.738;37.804;2022-10-16T16:26:21;4.95;;;3.50;;
75295;SDS011;64126;44.738;37.804;2022-10-16T16:29:00;8.57;;;3.70;;
75295;SDS011;64126;44.738;37.804;2022-10-16T16:31:35;7.18;;;3.60;;
75295;SDS011;64126;44.738;37.804;2022-10-16T16:34:10;5.90;;;3.97;;
75295;SDS011;64126;44.738;37.804;2022-10-16T16:36:44;6.65;;;3.53;;
75295;SDS011;64126;44.738;37.804;2022-10-16T16:39:19;10.02;;;3.17;;
75295;SDS011;64126;44.738;37.804;2022-10-16T16:41:54;4.32;;;3.58;;
75295;SDS011;64126;44.738;37.804;2022-10-16T16:44:32;7.50;;;4.50;;
75295;SDS011;64126;44.738;37.804;2022-10-16T16:49:43;8.82;;;4.38;;
75295;SDS011;64126;44.738;37.804;2022-10-16T16:52:19;9.07;;;5.18;;
75295;SDS011;64126;44.738;37.804;2022-10-16T16:54:53;11.00;;;6.00;;
75295;SDS011;64126;44.738;37.804;2022-10-16T17:00:05;12.50;;;7.15;;
75295;SDS011;64126;44.738;37.804;2022-10-16T17:02:42;10.55;;;6.70;;
75295;SDS011;64126;44.738;37.804;2022-10-16T17:05:18;10.45;;;6.78;;
75295;SDS011;64126;44.738;37.804;2022-10-16T17:07:53;9.15;;;6.60;;
75295;SDS011;64126;44.738;37.804;2022-10-16T17:10:28;10.60;;;5.97;;
75295;SDS011;64126;44.738;37.804;2022-10-16T17:13:02;9.88;;;5.60;;
75295;SDS011;64126;44.738;37.804;2022-10-16T17:15:36;9.68;;;5.60;;
75295;SDS011;64126;44.738;37.804;2022-10-16T17:18:12;9.00;;;6.50;;
75295;SDS011;64126;44.738;37.804;2022-10-16T17:20:53;11.75;;;6.60;;
75295;SDS011;64126;44.738;37.804;2022-10-16T17:23:27;11.10;;;5.72;;
75295;SDS011;64126;44.738;37.804;2022-10-16T17:26:06;8.27;;;6.05;;
75295;SDS011;64126;44.738;37.804;2022-10-16T17:28:52;8.30;;;5.72;;
75295;SDS011;64126;44.738;37.804;2022-10-16T17:31:34;7.85;;;5.50;;
75295;SDS011;64126;44.738;37.804;2022-10-16T17:34:10;9.15;;;5.45;;
75295;SDS011;64126;44.738;37.804;2022-10-16T17:36:45;8.23;;;4.93;;
75295;SDS011;64126;44.738;37.804;2022-10-16T17:39:20;10.25;;;6.32;;
75295;SDS011;64126;44.738;37.804;2022-10-16T17:41:55;7.15;;;4.90;;
75295;SDS011;64126;44.738;37.804;2022-10-16T17:44:29;8.38;;;5.10;;
75295;SDS011;64126;44.738;37.804;2022-10-16T17:47:14;10.90;;;5.72;;
75295;SDS011;64126;44.738;37.804;2022-10-16T17:49:57;8.70;;;5.10;;